Terminal Aerodrome Forecast
Issued by NWS Charleston, WV

Current Version | Previous Version | Graphics & Text | Print | Product List | Glossary On
Versions: 1 2 3 4 5 6 7 8 9 10 11 12 13 14 15 16 17 18 19 20 21 22 23 24 25
000
FTUS41 KRLX 201121
TAFBKW
TAF
KBKW 201121Z 2012/2112 16008KT 6SM -RA SCT020 OVC035
      TEMPO 2012/2013 5SM -RA BR BKN020
     FM201500 18008KT P6SM OVC028
     FM201800 22007KT P6SM BKN035
     FM202100 23008KT P6SM BKN040
     FM210300 16005KT P6SM BKN050=

USA.gov is the U.S. government's official web portal to all federal, state and local government web resources and services.